Time;durP1;ratioP1;P1;durP2;ratioP2;P2;SDS_P1;SDS_P2;PMS_P1;PMS_P2;Temp;Humidity;BMP_temperature;BMP_pressure;BME280_temperature;BME280_humidity;BME280_pressure;Samples;Min_cycle;Max_cycle;Signal;HPM_P1;HPM_P2
2022/11/10 00:00:20;;;;;;;0.90;0.80;;;8.50;99.90;;;;;;5054534;28;20045;-74
2022/11/10 00:02:46;;;;;;;0.00;0.00;;;8.50;99.90;;;;;;5053672;28;20071;-73
2022/11/10 00:05:13;;;;;;;12.02;0.85;;;8.40;99.90;;;;;;5055238;28;20053;-76
2022/11/10 00:07:39;;;;;;;0.30;0.20;;;8.40;99.90;;;;;;5054377;28;20439;-74
2022/11/10 00:10:06;;;;;;;0.00;0.00;;;8.40;99.90;;;;;;5052640;28;20049;-76
2022/11/10 00:12:32;;;;;;;0.10;0.10;;;8.40;99.90;;;;;;5053215;28;20049;-75
2022/11/10 00:17:43;;;;;;;0.40;0.40;;;8.40;99.90;;;;;;5053175;28;20059;-76
2022/11/10 00:20:10;;;;;;;4.80;0.30;;;8.40;99.90;;;;;;5053049;28;20056;-75
2022/11/10 00:22:37;;;;;;;0.50;0.50;;;8.40;99.90;;;;;;5052013;28;20041;-74
2022/11/10 00:25:03;;;;;;;0.00;0.00;;;8.40;99.90;;;;;;5052728;28;20112;-76
2022/11/10 00:27:31;;;;;;;1.85;1.42;;;8.30;99.90;;;;;;5056655;28;20041;-75
2022/11/10 00:29:56;;;;;;;0.08;0.08;;;8.30;99.90;;;;;;5056169;28;20072;-74
2022/11/10 00:32:22;;;;;;;0.28;0.25;;;8.30;99.90;;;;;;5057079;28;20583;-75
2022/11/10 00:34:47;;;;;;;0.00;0.00;;;8.20;99.90;;;;;;5059164;28;20093;-75
2022/11/10 00:37:13;;;;;;;0.65;0.30;;;8.20;99.90;;;;;;5058166;28;20059;-74
2022/11/10 00:39:38;;;;;;;4.38;0.63;;;8.20;99.90;;;;;;5058695;28;20420;-74
2022/11/10 00:42:05;;;;;;;0.10;0.10;;;8.20;99.90;;;;;;5058020;28;20044;-74
2022/11/10 00:44:30;;;;;;;0.47;0.20;;;8.30;99.90;;;;;;5057916;28;20057;-75
2022/11/10 00:46:56;;;;;;;0.00;0.00;;;8.40;99.90;;;;;;5053213;28;20298;-75
2022/11/10 00:49:22;;;;;;;0.03;0.03;;;8.40;99.90;;;;;;5037416;28;20095;-76
2022/11/10 00:51:48;;;;;;;0.10;0.10;;;8.40;99.90;;;;;;5038745;28;20283;-74
2022/11/10 00:54:13;;;;;;;0.30;0.28;;;8.30;99.90;;;;;;5038386;28;20046;-75
2022/11/10 00:56:39;;;;;;;0.20;0.20;;;8.30;99.90;;;;;;5038436;28;20627;-76
2022/11/10 00:59:04;;;;;;;0.77;0.65;;;8.20;99.90;;;;;;5039795;28;20065;-74
2022/11/10 01:01:30;;;;;;;0.20;0.15;;;8.30;99.90;;;;;;5038461;28;20037;-75
2022/11/10 01:03:56;;;;;;;0.03;0.03;;;8.30;99.90;;;;;;5038333;28;20037;-75
2022/11/10 01:06:21;;;;;;;0.20;0.17;;;8.20;99.90;;;;;;5037762;28;20116;-74
2022/11/10 01:08:47;;;;;;;0.55;0.35;;;8.20;99.90;;;;;;5037549;28;20045;-75
2022/11/10 01:11:17;;;;;;;0.57;0.57;;;8.20;99.90;;;;;;5038237;28;20045;-76
2022/11/10 01:13:44;;;;;;;0.22;0.22;;;8.20;99.90;;;;;;5036379;28;20144;-74
2022/11/10 01:16:14;;;;;;;3.85;1.38;;;8.20;99.90;;;;;;5037530;28;20041;-74
2022/11/10 01:18:40;;;;;;;0.10;0.10;;;8.20;99.90;;;;;;5036654;28;20088;-73
2022/11/10 01:21:06;;;;;;;0.22;0.22;;;8.20;99.90;;;;;;5037386;28;20060;-76
2022/11/10 01:23:32;;;;;;;0.30;0.30;;;8.20;99.90;;;;;;5037573;28;20132;-74
2022/11/10 01:26:00;;;;;;;14.05;0.55;;;8.20;99.90;;;;;;5039717;28;20076;-76
2022/11/10 01:28:26;;;;;;;1.80;1.25;;;8.10;99.90;;;;;;5049002;28;20045;-73
2022/11/10 01:31:05;;;;;;;2.53;1.95;;;8.20;99.90;;;;;;5036524;28;20045;-74
2022/11/10 01:33:31;;;;;;;1.23;0.68;;;8.20;99.90;;;;;;5034654;28;20080;-75
2022/11/10 01:35:57;;;;;;;0.10;0.10;;;8.30;99.90;;;;;;5037062;28;20057;-74
2022/11/10 01:38:25;;;;;;;0.88;0.88;;;8.20;99.90;;;;;;5036783;28;20587;-74
2022/11/10 01:40:50;;;;;;;0.00;0.00;;;8.30;99.90;;;;;;5036855;28;20057;-74
2022/11/10 01:43:16;;;;;;;0.17;0.17;;;8.20;99.90;;;;;;5036900;28;20050;-74
2022/11/10 01:45:51;;;;;;;1.17;0.95;;;8.20;99.90;;;;;;5055740;28;20080;-73
2022/11/10 01:48:40;;;;;;;0.00;0.00;;;8.20;99.90;;;;;;5055266;28;20045;-75
2022/11/10 01:51:28;;;;;;;0.70;0.40;;;8.10;99.90;;;;;;5056421;28;20045;-74
2022/11/10 01:53:58;;;;;;;0.52;0.35;;;8.10;99.90;;;;;;5056255;28;20531;-72
2022/11/10 01:56:27;;;;;;;0.00;0.00;;;8.10;99.90;;;;;;5056667;28;20052;-74
2022/11/10 01:58:57;;;;;;;0.00;0.00;;;8.10;99.90;;;;;;5056287;28;20380;-75
2022/11/10 02:01:23;;;;;;;0.00;0.00;;;8.10;99.90;;;;;;5057547;28;20059;-73
2022/11/10 02:04:05;;;;;;;0.85;0.43;;;8.10;99.90;;;;;;5056265;28;20037;-75
2022/11/10 02:06:36;;;;;;;0.10;0.10;;;8.10;99.90;;;;;;5056720;28;20040;-73
2022/11/10 02:09:02;;;;;;;0.10;0.10;;;8.00;99.90;;;;;;5056004;28;20099;-74
2022/11/10 02:11:29;;;;;;;0.13;0.13;;;8.00;99.90;;;;;;5059117;28;20041;-74
2022/11/10 02:13:55;;;;;;;0.00;0.00;;;8.00;99.90;;;;;;5037820;28;20072;-75
2022/11/10 02:16:22;;;;;;;0.00;0.00;;;8.00;99.90;;;;;;5055626;28;20044;-75
2022/11/10 02:18:48;;;;;;;1.77;1.30;;;8.10;99.90;;;;;;5055545;28;20071;-72
2022/11/10 02:21:17;;;;;;;0.17;0.17;;;8.20;99.90;;;;;;5055760;28;20589;-73
2022/11/10 02:23:46;;;;;;;0.10;0.10;;;8.20;99.90;;;;;;5056471;28;20045;-73
2022/11/10 02:26:13;;;;;;;0.05;0.05;;;8.20;99.90;;;;;;5056817;28;20055;-74
2022/11/10 02:28:39;;;;;;;0.90;0.80;;;8.20;99.90;;;;;;5056266;28;20079;-74
2022/11/10 02:31:05;;;;;;;1.30;0.63;;;8.10;99.90;;;;;;5057739;28;20400;-74
2022/11/10 02:33:30;;;;;;;1.15;0.60;;;8.20;99.90;;;;;;5036055;28;20048;-75
2022/11/10 02:35:56;;;;;;;1.70;0.85;;;8.30;99.90;;;;;;5036780;28;20050;-74
2022/11/10 02:38:22;;;;;;;0.40;0.30;;;8.30;99.90;;;;;;5037098;28;20037;-74
2022/11/10 02:40:48;;;;;;;2.25;1.38;;;8.30;99.90;;;;;;5036774;28;20163;-74
2022/11/10 02:43:16;;;;;;;1.77;0.98;;;8.30;99.90;;;;;;5036949;28;20056;-73
2022/11/10 02:45:45;;;;;;;0.32;0.32;;;8.40;99.90;;;;;;5038054;28;20052;-75
2022/11/10 02:48:12;;;;;;;0.85;0.47;;;8.40;99.90;;;;;;5038980;28;20072;-73
2022/11/10 02:50:38;;;;;;;1.25;0.80;;;8.40;99.90;;;;;;5046297;28;20052;-73
2022/11/10 02:53:05;;;;;;;0.65;0.45;;;8.40;99.90;;;;;;5056135;28;20479;-73
2022/11/10 02:55:31;;;;;;;0.65;0.65;;;8.30;99.90;;;;;;5054953;28;20075;-74
2022/11/10 02:57:57;;;;;;;0.20;0.20;;;8.40;99.90;;;;;;5097911;22;20112;-85
2022/11/10 03:00:23;;;;;;;0.00;0.00;;;8.50;99.90;;;;;;5015151;28;20045;-85
2022/11/10 03:02:54;;;;;;;0.38;0.38;;;9.10;99.90;;;;;;5045637;28;20077;-85
2022/11/10 03:05:20;;;;;;;0.20;0.20;;;9.00;99.90;;;;;;5043425;28;20041;-86
2022/11/10 03:07:52;;;;;;;0.00;0.00;;;9.30;99.90;;;;;;5043139;28;20049;-86
2022/11/10 03:10:18;;;;;;;0.25;0.25;;;8.40;99.90;;;;;;5009158;28;20045;-86
2022/11/10 03:12:44;;;;;;;0.57;0.08;;;8.40;99.90;;;;;;5046713;28;20044;-85
2022/11/10 03:15:11;;;;;;;0.10;0.10;;;8.40;99.90;;;;;;5030838;28;20060;-86
2022/11/10 03:17:37;;;;;;;0.52;0.52;;;8.50;99.90;;;;;;5029430;28;20037;-85
2022/11/10 03:20:04;;;;;;;0.50;0.50;;;8.40;99.90;;;;;;5028927;28;20076;-86
2022/11/10 03:22:29;;;;;;;0.88;0.32;;;8.50;99.90;;;;;;5043214;28;20057;-86
2022/11/10 03:24:55;;;;;;;0.10;0.10;;;8.50;99.90;;;;;;5043688;28;20056;-86
2022/11/10 03:27:21;;;;;;;0.32;0.25;;;8.40;99.90;;;;;;5043427;28;20049;-86
2022/11/10 03:29:46;;;;;;;0.38;0.35;;;8.50;99.90;;;;;;5044681;28;20077;-86
2022/11/10 03:32:12;;;;;;;0.20;0.17;;;8.30;99.90;;;;;;5055456;28;20085;-86
2022/11/10 03:34:38;;;;;;;6.65;1.27;;;8.40;99.90;;;;;;5047463;28;20025;-86
2022/11/10 03:37:04;;;;;;;0.15;0.15;;;9.20;99.90;;;;;;5028780;28;20099;-86
2022/11/10 03:39:30;;;;;;;3.38;0.73;;;8.30;99.90;;;;;;5028425;28;20045;-86
2022/11/10 03:41:55;;;;;;;0.77;0.35;;;9.10;99.90;;;;;;5026001;28;20064;-86
2022/11/10 03:44:21;;;;;;;0.05;0.05;;;8.20;99.90;;;;;;5032214;28;20369;-86
2022/11/10 03:46:47;;;;;;;0.15;0.10;;;9.10;99.90;;;;;;5064413;28;20040;-86
2022/11/10 03:49:12;;;;;;;0.65;0.45;;;9.10;99.90;;;;;;5062379;28;20041;-86
2022/11/10 03:51:38;;;;;;;0.10;0.10;;;8.20;99.90;;;;;;5045531;28;20969;-86
2022/11/10 03:54:04;;;;;;;0.40;0.40;;;8.30;99.90;;;;;;5045465;28;20056;-86
2022/11/10 03:56:30;;;;;;;0.10;0.08;;;8.20;99.90;;;;;;5061673;28;20543;-86
2022/11/10 03:58:55;;;;;;;0.47;0.38;;;8.20;99.90;;;;;;5048580;28;20093;-86
2022/11/10 04:01:22;;;;;;;0.10;0.10;;;8.00;99.90;;;;;;5065953;28;20041;-86
2022/11/10 04:03:48;;;;;;;0.57;0.57;;;8.40;99.90;;;;;;5048146;28;20080;-86
2022/11/10 04:08:59;;;;;;;0.05;0.05;;;8.20;99.90;;;;;;5047088;28;20142;-86
2022/11/10 04:16:55;;;;;;;0.15;0.15;;;8.20;99.90;;;;;;5048487;28;20307;-86
2022/11/10 04:19:21;;;;;;;1.05;0.95;;;8.20;99.90;;;;;;5063463;28;20049;-86
2022/11/10 04:21:47;;;;;;;0.22;0.22;;;8.20;99.90;;;;;;5060589;28;20103;-86
2022/11/10 04:24:13;;;;;;;1.13;0.60;;;8.20;99.90;;;;;;5045852;28;20040;-86
2022/11/10 04:26:39;;;;;;;0.45;0.43;;;8.10;99.90;;;;;;5020744;28;20140;-86
2022/11/10 04:29:10;;;;;;;1.05;0.95;;;8.20;99.90;;;;;;5024269;28;20049;-86
2022/11/10 04:31:38;;;;;;;0.65;0.55;;;8.20;99.90;;;;;;5008329;28;20029;-85
2022/11/10 04:34:05;;;;;;;0.55;0.55;;;8.20;99.90;;;;;;5026395;28;20080;-86
2022/11/10 04:36:33;;;;;;;0.10;0.10;;;8.20;99.90;;;;;;5026112;28;20076;-86
2022/11/10 04:38:59;;;;;;;1.95;0.98;;;8.30;99.90;;;;;;5043791;28;20117;-86
2022/11/10 04:41:26;;;;;;;0.52;0.40;;;8.90;99.90;;;;;;5013345;28;20057;-87
2022/11/10 04:43:52;;;;;;;0.22;0.22;;;8.30;99.90;;;;;;5019000;28;20064;-86
2022/11/10 04:46:37;;;;;;;0.75;0.73;;;8.50;99.90;;;;;;5026281;28;20080;-86
2022/11/10 04:49:05;;;;;;;0.30;0.30;;;8.80;99.90;;;;;;5046423;28;20045;-87
2022/11/10 04:51:33;;;;;;;0.93;0.40;;;8.60;99.90;;;;;;5043788;28;20056;-86
2022/11/10 04:54:00;;;;;;;0.85;0.30;;;8.60;99.90;;;;;;5011367;28;20568;-86
2022/11/10 04:56:27;;;;;;;0.15;0.15;;;8.60;99.90;;;;;;5012001;28;20049;-86
2022/11/10 04:58:54;;;;;;;1.88;0.57;;;8.90;99.90;;;;;;5049268;28;20057;-86
2022/11/10 05:01:22;;;;;;;0.30;0.30;;;8.60;99.90;;;;;;5031870;28;20037;-86
2022/11/10 05:03:49;;;;;;;0.40;0.38;;;9.50;99.90;;;;;;5064855;28;20049;-85
2022/11/10 05:06:16;;;;;;;10.45;0.80;;;9.50;99.90;;;;;;5062234;28;20033;-85
2022/11/10 05:08:43;;;;;;;2.63;1.65;;;8.70;99.90;;;;;;5046651;28;20053;-85
2022/11/10 05:11:10;;;;;;;1.23;0.90;;;8.70;99.90;;;;;;5045546;28;20097;-85
2022/11/10 05:13:36;;;;;;;0.45;0.45;;;8.70;99.90;;;;;;5065480;28;20392;-85
2022/11/10 05:16:02;;;;;;;2.10;1.38;;;8.80;99.90;;;;;;5063911;28;20045;-86
2022/11/10 05:18:28;;;;;;;0.65;0.55;;;8.80;99.90;;;;;;5051413;28;20053;-86
2022/11/10 05:20:53;;;;;;;1.55;1.02;;;8.70;99.90;;;;;;5068089;28;20147;-85
2022/11/10 05:23:39;;;;;;;2.92;1.48;;;8.80;99.90;;;;;;5048424;28;20048;-86
2022/11/10 05:26:07;;;;;;;0.80;0.30;;;9.50;99.90;;;;;;5050226;28;20041;-86
2022/11/10 05:28:33;;;;;;;1.67;1.00;;;9.20;99.90;;;;;;5069713;28;20041;-85
2022/11/10 05:30:59;;;;;;;0.77;0.50;;;8.30;99.90;;;;;;5052624;28;20085;-86
2022/11/10 05:33:25;;;;;;;4.25;2.63;;;8.80;99.90;;;;;;5069292;28;20049;-85
2022/11/10 05:35:50;;;;;;;3.30;2.17;;;8.70;99.90;;;;;;5068865;28;20033;-85
2022/11/10 05:38:16;;;;;;;5.32;1.25;;;8.30;99.90;;;;;;5033811;28;20028;-85
2022/11/10 05:40:42;;;;;;;0.80;0.57;;;8.80;99.90;;;;;;5050442;28;20127;-86
2022/11/10 05:43:09;;;;;;;0.45;0.43;;;8.80;99.90;;;;;;5068956;28;20491;-86
2022/11/10 05:45:35;;;;;;;0.47;0.45;;;8.90;99.90;;;;;;5035382;28;20056;-85
2022/11/10 05:48:01;;;;;;;0.90;0.85;;;8.90;99.90;;;;;;5051887;28;20040;-85
2022/11/10 05:50:26;;;;;;;0.65;0.65;;;8.90;99.90;;;;;;5049981;28;20048;-86
2022/11/10 05:52:54;;;;;;;0.52;0.52;;;9.60;99.90;;;;;;5052519;28;20037;-86
2022/11/10 05:55:22;;;;;;;1.27;1.17;;;9.30;99.90;;;;;;5067171;28;20033;-86
2022/11/10 05:57:49;;;;;;;0.00;0.00;;;9.50;99.90;;;;;;5066842;28;20063;-85
2022/11/10 06:00:20;;;;;;;0.45;0.43;;;8.00;99.90;;;;;;5066776;28;20045;-86
2022/11/10 06:03:01;;;;;;;0.00;0.00;;;8.90;99.90;;;;;;5063770;28;20053;-85
2022/11/10 06:05:28;;;;;;;0.75;0.75;;;8.90;99.90;;;;;;5065334;28;20053;-85
2022/11/10 06:07:54;;;;;;;0.77;0.43;;;9.80;99.90;;;;;;5065291;28;20043;-85
2022/11/10 06:10:20;;;;;;;0.47;0.47;;;9.00;99.90;;;;;;5065570;28;20073;-86
2022/11/10 06:12:46;;;;;;;5.88;0.90;;;9.00;99.90;;;;;;5049728;28;20045;-86
2022/11/10 06:15:12;;;;;;;0.47;0.47;;;9.80;99.90;;;;;;5066506;28;20593;-86
2022/11/10 06:17:38;;;;;;;13.05;1.55;;;9.00;99.90;;;;;;5048392;28;20064;-86
2022/11/10 06:20:04;;;;;;;0.00;0.00;;;9.00;99.90;;;;;;5067249;28;20044;-86
2022/11/10 06:22:30;;;;;;;1.25;0.52;;;9.00;99.90;;;;;;5048962;28;20049;-86
2022/11/10 06:24:55;;;;;;;0.20;0.20;;;9.00;99.90;;;;;;5065904;28;20044;-86
2022/11/10 06:27:21;;;;;;;0.00;0.00;;;9.80;99.90;;;;;;5045401;28;20060;-87
2022/11/10 06:29:47;;;;;;;0.22;0.22;;;9.00;99.90;;;;;;5041795;28;20048;-85
2022/11/10 06:32:12;;;;;;;0.00;0.00;;;9.70;99.90;;;;;;5023381;28;20072;-86
2022/11/10 06:34:38;;;;;;;0.45;0.45;;;8.90;99.90;;;;;;5061982;28;20063;-86
2022/11/10 06:37:03;;;;;;;0.77;0.68;;;8.90;99.90;;;;;;5028418;28;20545;-86
2022/11/10 06:39:29;;;;;;;1.98;0.57;;;9.00;99.90;;;;;;5028980;28;20060;-86
2022/11/10 06:41:55;;;;;;;0.43;0.38;;;9.00;99.90;;;;;;5027521;28;20045;-86
2022/11/10 06:44:20;;;;;;;0.90;0.50;;;9.10;99.90;;;;;;5063309;28;20040;-86
2022/11/10 06:46:46;;;;;;;3.60;0.52;;;8.90;99.90;;;;;;5027180;28;20068;-86
2022/11/10 06:49:12;;;;;;;6.03;0.57;;;8.90;99.90;;;;;;5030361;28;20075;-86
2022/11/10 06:51:38;;;;;;;0.30;0.30;;;9.00;99.90;;;;;;5046551;28;20051;-86
2022/11/10 06:54:03;;;;;;;9.43;2.58;;;9.00;99.90;;;;;;5048911;28;20045;-86
2022/11/10 06:56:29;;;;;;;0.60;0.52;;;9.00;99.90;;;;;;5044929;28;20048;-85
2022/11/10 06:58:55;;;;;;;7.03;0.95;;;9.00;99.90;;;;;;5057746;28;20049;-86
2022/11/10 07:01:25;;;;;;;0.05;0.05;;;9.00;99.90;;;;;;5014541;28;20064;-85
2022/11/10 07:03:52;;;;;;;1.38;1.25;;;9.10;99.90;;;;;;5016952;28;20116;-85
2022/11/10 07:06:18;;;;;;;1.65;1.38;;;9.10;99.90;;;;;;5046721;28;20055;-86
2022/11/10 07:08:43;;;;;;;0.60;0.60;;;9.90;99.90;;;;;;5057150;28;20060;-85
2022/11/10 07:11:09;;;;;;;0.60;0.55;;;9.20;99.90;;;;;;5041201;28;20037;-85
2022/11/10 07:13:35;;;;;;;1.10;0.65;;;9.20;99.90;;;;;;5044597;28;20081;-85
2022/11/10 07:16:04;;;;;;;0.03;0.03;;;10.20;99.90;;;;;;5032988;28;20081;-85
2022/11/10 07:18:29;;;;;;;3.58;1.52;;;9.30;99.90;;;;;;5050008;28;20037;-85
2022/11/10 07:20:55;;;;;;;3.60;1.98;;;9.30;99.90;;;;;;5037734;28;20038;-85
2022/11/10 07:23:23;;;;;;;0.40;0.40;;;9.40;99.90;;;;;;5046673;28;20079;-85
2022/11/10 07:25:49;;;;;;;1.30;0.65;;;9.00;99.90;;;;;;5060541;28;20045;-85
2022/11/10 07:28:15;;;;;;;0.17;0.17;;;9.50;99.90;;;;;;5030348;28;20086;-85
2022/11/10 07:30:41;;;;;;;1.17;0.35;;;9.50;99.90;;;;;;5061403;28;20049;-86
2022/11/10 07:33:10;;;;;;;0.05;0.05;;;9.60;99.90;;;;;;5045655;28;20037;-85
2022/11/10 07:35:36;;;;;;;0.45;0.45;;;9.60;99.90;;;;;;5043032;28;20072;-85
2022/11/10 07:38:13;;;;;;;6.25;1.25;;;9.60;99.90;;;;;;5022216;28;20046;-86
2022/11/10 07:40:39;;;;;;;2.92;1.17;;;9.60;99.90;;;;;;5039240;28;20046;-85
2022/11/10 07:43:05;;;;;;;1.38;1.15;;;9.60;99.90;;;;;;5022024;28;20112;-85
2022/11/10 07:45:32;;;;;;;0.32;0.15;;;9.50;99.90;;;;;;5021305;28;20116;-86
2022/11/10 07:48:00;;;;;;;1.45;0.65;;;9.40;99.90;;;;;;5022578;28;20041;-86
2022/11/10 07:50:25;;;;;;;0.45;0.45;;;9.40;99.90;;;;;;5021262;28;20097;-86
2022/11/10 07:52:51;;;;;;;6.50;1.08;;;9.50;99.90;;;;;;5043327;28;20033;-87
2022/11/10 07:55:17;;;;;;;0.50;0.50;;;9.50;99.90;;;;;;5043256;28;20497;-86
2022/11/10 07:57:42;;;;;;;1.48;1.38;;;9.50;99.90;;;;;;5040069;28;20057;-86
2022/11/10 08:00:11;;;;;;;0.95;0.47;;;9.50;99.90;;;;;;5059212;28;20029;-86
2022/11/10 08:02:37;;;;;;;0.88;0.45;;;9.50;99.90;;;;;;5012534;28;20561;-89
2022/11/10 08:05:03;;;;;;;0.25;0.25;;;9.00;99.90;;;;;;5028358;28;20053;-88
2022/11/10 08:07:29;;;;;;;0.10;0.10;;;9.40;99.90;;;;;;5027103;28;20057;-87
2022/11/10 08:09:55;;;;;;;0.52;0.52;;;10.20;99.90;;;;;;5028046;28;20057;-88
2022/11/10 08:12:21;;;;;;;0.00;0.00;;;10.30;99.90;;;;;;5011766;28;20095;-88
2022/11/10 08:14:47;;;;;;;10.85;2.10;;;9.60;99.90;;;;;;5027850;28;20514;-88
2022/11/10 08:17:13;;;;;;;1.55;0.88;;;9.40;99.90;;;;;;5012283;28;20136;-88
2022/11/10 08:19:38;;;;;;;7.50;1.10;;;9.70;99.90;;;;;;5011864;28;20476;-88
2022/11/10 08:22:10;;;;;;;0.40;0.40;;;10.00;99.90;;;;;;5012704;28;20045;-88
2022/11/10 08:24:36;;;;;;;5.63;2.92;;;10.40;99.90;;;;;;5028260;28;20041;-89
2022/11/10 08:27:02;;;;;;;1.25;0.68;;;9.50;99.90;;;;;;5011903;28;20059;-89
2022/11/10 08:29:28;;;;;;;0.30;0.10;;;10.00;99.90;;;;;;5012073;28;20088;-88
2022/11/10 08:31:53;;;;;;;0.10;0.10;;;9.40;99.90;;;;;;5011367;28;20479;-89
2022/11/10 08:34:21;;;;;;;0.47;0.43;;;10.50;99.90;;;;;;5012038;28;20507;-89
2022/11/10 08:36:46;;;;;;;3.58;1.70;;;9.80;99.90;;;;;;5028330;28;20085;-89
2022/11/10 08:39:12;;;;;;;0.90;0.73;;;10.90;99.90;;;;;;5012027;28;20076;-89
2022/11/10 08:41:38;;;;;;;10.85;1.23;;;11.20;99.90;;;;;;5028314;28;20048;-88
2022/11/10 08:44:05;;;;;;;0.68;0.47;;;10.10;99.90;;;;;;5011524;28;20162;-88
2022/11/10 08:46:33;;;;;;;0.10;0.10;;;10.80;99.90;;;;;;5027722;28;20053;-88
2022/11/10 08:49:00;;;;;;;2.65;0.88;;;11.30;99.90;;;;;;5010671;28;20060;-89
2022/11/10 08:51:26;;;;;;;1.55;0.70;;;11.00;99.90;;;;;;5014022;28;20528;-90
2022/11/10 08:53:52;;;;;;;0.10;0.10;;;11.30;99.90;;;;;;5015343;28;20492;-89
2022/11/10 08:56:21;;;;;;;1.98;0.95;;;10.60;99.90;;;;;;5032419;28;20099;-89
2022/11/10 08:58:55;;;;;;;0.75;0.55;;;11.30;99.90;;;;;;5033994;28;20053;-88
2022/11/10 09:01:21;;;;;;;0.20;0.20;;;11.00;99.90;;;;;;5018711;28;20947;-90
2022/11/10 09:03:47;;;;;;;0.30;0.30;;;10.60;99.90;;;;;;5018644;28;20148;-88
2022/11/10 09:06:13;;;;;;;10.05;2.53;;;11.30;99.90;;;;;;5018632;28;20041;-86
2022/11/10 09:08:39;;;;;;;2.58;0.65;;;10.70;99.90;;;;;;5035288;28;20487;-87
2022/11/10 09:11:04;;;;;;;0.93;0.80;;;10.60;99.90;;;;;;5018494;28;20049;-87
2022/11/10 09:13:30;;;;;;;0.93;0.65;;;10.60;99.90;;;;;;5018522;28;20053;-88
2022/11/10 09:16:04;;;;;;;4.03;1.17;;;10.80;99.90;;;;;;5033191;28;20057;-87
2022/11/10 09:18:30;;;;;;;0.17;0.17;;;10.80;99.90;;;;;;5018884;28;20053;-88
2022/11/10 09:21:01;;;;;;;0.38;0.38;;;10.90;99.90;;;;;;5017637;28;20056;-88
2022/11/10 09:23:29;;;;;;;0.00;0.00;;;11.00;99.90;;;;;;5018059;28;20391;-87
2022/11/10 09:25:55;;;;;;;13.05;0.63;;;11.10;99.90;;;;;;5017835;28;20049;-87
2022/11/10 09:28:24;;;;;;;3.60;1.38;;;10.70;99.90;;;;;;5018700;28;20021;-87
2022/11/10 09:30:53;;;;;;;2.13;1.17;;;11.80;99.90;;;;;;5018267;28;20052;-85
2022/11/10 09:33:27;;;;;;;0.57;0.57;;;11.60;99.90;;;;;;5018172;28;20052;-87
2022/11/10 09:36:01;;;;;;;4.18;1.65;;;11.90;99.90;;;;;;5018554;28;20392;-88
2022/11/10 09:38:30;;;;;;;0.20;0.20;;;11.90;99.90;;;;;;5052504;28;20612;-87
2022/11/10 09:41:03;;;;;;;2.28;0.80;;;11.80;16.70;;;;;;5033567;28;20099;-87
2022/11/10 09:43:45;;;;;;;0.32;0.32;;;12.20;61.70;;;;;;5017207;28;20049;-87
2022/11/10 09:46:32;;;;;;;1.23;0.40;;;12.50;1.00;;;;;;5017060;28;20499;-88
2022/11/10 09:49:03;;;;;;;;;;;12.50;99.90;;;;;;5053065;28;20132;-88
2022/11/10 09:51:39;;;;;;;0.00;0.00;;;13.60;99.90;;;;;;5034048;28;20031;-86
2022/11/10 09:54:36;;;;;;;1.02;0.50;;;13.50;99.90;;;;;;5034881;28;20045;-88
2022/11/10 09:57:05;;;;;;;1.38;1.10;;;12.80;99.90;;;;;;5034987;28;20057;-86
2022/11/10 09:59:33;;;;;;;3.03;1.38;;;13.20;99.90;;;;;;5017496;28;20086;-86
2022/11/10 10:02:03;;;;;;;0.30;0.30;;;13.70;99.90;;;;;;5032910;28;20047;-86
2022/11/10 10:04:57;;;;;;;0.30;0.30;;;12.80;99.90;;;;;;5019069;28;20084;-84
2022/11/10 10:07:35;;;;;;;1.92;1.27;;;12.60;99.90;;;;;;5035321;28;20037;-88
2022/11/10 10:10:28;;;;;;;4.38;0.50;;;13.00;99.90;;;;;;5034103;28;20059;-86
2022/11/10 10:13:09;;;;;;;0.30;0.30;;;13.10;36.20;;;;;;5017445;28;20068;-88
2022/11/10 10:15:48;;;;;;;1.80;1.65;;;13.20;1.00;;;;;;5052499;28;20045;-87
2022/11/10 10:18:51;;;;;;;1.85;1.25;;;13.20;1.00;;;;;;5017732;28;20053;-87
2022/11/10 10:21:56;;;;;;;2.47;1.20;;;13.10;1.00;;;;;;5034272;28;20514;-87
2022/11/10 10:24:26;;;;;;;0.32;0.32;;;13.10;1.00;;;;;;5011723;28;20093;-87
2022/11/10 10:26:58;;;;;;;2.92;1.10;;;13.00;1.00;;;;;;5017529;28;20132;-87
2022/11/10 10:29:31;;;;;;;0.03;0.03;;;14.20;1.00;;;;;;5017092;28;20132;-87
2022/11/10 10:31:59;;;;;;;0.43;0.38;;;14.30;1.00;;;;;;5017036;28;20048;-85
2022/11/10 10:34:31;;;;;;;1.02;1.02;;;13.90;1.00;;;;;;5033213;28;20056;-86
2022/11/10 10:36:56;;;;;;;3.60;0.82;;;13.70;99.90;;;;;;5035357;28;20602;-86
2022/11/10 10:39:35;;;;;;;0.47;0.45;;;14.70;99.90;;;;;;5057154;28;20045;-86
2022/11/10 10:42:12;;;;;;;0.30;0.30;;;13.70;99.90;;;;;;5022931;28;20117;-85
2022/11/10 10:44:38;;;;;;;1.33;1.23;;;13.60;99.90;;;;;;5039586;28;20064;-86
2022/11/10 10:47:04;;;;;;;1.40;1.30;;;13.60;99.90;;;;;;5022875;28;20037;-85
2022/11/10 10:49:35;;;;;;;2.72;1.55;;;13.30;99.90;;;;;;5025257;28;20045;-85
2022/11/10 10:52:09;;;;;;;1.90;0.57;;;14.00;99.90;;;;;;5024008;28;20033;-85
2022/11/10 10:54:37;;;;;;;0.73;0.73;;;14.40;99.90;;;;;;5040091;28;20400;-85
2022/11/10 10:57:11;;;;;;;3.60;1.98;;;13.70;99.90;;;;;;5024102;28;20140;-85
2022/11/10 10:59:37;;;;;;;0.70;0.55;;;13.90;53.20;;;;;;5024493;28;20049;-85
2022/11/10 11:02:19;;;;;;;1.35;1.23;;;13.90;10.00;;;;;;5029364;28;20045;-86
2022/11/10 11:04:45;;;;;;;1.65;1.05;;;14.80;1.00;;;;;;5037434;28;20040;-86
2022/11/10 11:07:24;;;;;;;5.05;2.15;;;14.90;99.90;;;;;;5041058;28;20109;-86
2022/11/10 11:09:50;;;;;;;6.40;2.15;;;14.50;1.00;;;;;;5028463;28;20077;-88
2022/11/10 11:12:21;;;;;;;0.35;0.30;;;15.10;99.90;;;;;;5063543;28;20049;-90
2022/11/10 11:14:47;;;;;;;0.38;0.32;;;15.30;99.90;;;;;;5026065;28;20036;-87
2022/11/10 11:17:19;;;;;;;3.55;1.85;;;14.60;99.90;;;;;;5027372;28;20185;-87
2022/11/10 11:19:48;;;;;;;0.38;0.38;;;14.80;1.00;;;;;;5048636;28;20049;-85
2022/11/10 11:22:51;;;;;;;0.60;0.57;;;15.70;1.00;;;;;;5048682;28;20104;-86
2022/11/10 11:25:35;;;;;;;0.43;0.38;;;14.90;99.90;;;;;;5066194;28;20041;-87
2022/11/10 11:28:03;;;;;;;20.45;1.38;;;15.00;99.90;;;;;;5066311;28;20029;-87
2022/11/10 11:30:56;;;;;;;0.52;0.52;;;15.50;99.90;;;;;;5033522;28;20041;-87
2022/11/10 11:33:26;;;;;;;0.57;0.55;;;15.70;99.90;;;;;;5047448;28;20875;-86
2022/11/10 11:36:02;;;;;;;13.90;2.50;;;14.80;99.90;;;;;;5041227;28;20055;-87
2022/11/10 11:38:52;;;;;;;0.20;0.20;;;15.70;99.90;;;;;;5040489;28;20680;-85
2022/11/10 11:41:51;;;;;;;0.43;0.32;;;15.00;1.00;;;;;;5073807;28;20040;-85
2022/11/10 11:44:50;;;;;;;1.40;0.50;;;15.10;99.90;;;;;;5022163;28;20494;-86
2022/11/10 11:47:45;;;;;;;1.27;1.00;;;15.20;99.90;;;;;;5031314;28;20219;-86
2022/11/10 11:50:21;;;;;;;0.38;0.38;;;15.10;99.90;;;;;;5024946;28;20076;-85
2022/11/10 11:52:56;;;;;;;0.52;0.52;;;16.10;99.90;;;;;;5039940;28;20055;-85
2022/11/10 11:56:11;;;;;;;0.15;0.08;;;15.30;1.00;;;;;;5043837;28;20484;-86
2022/11/10 11:58:43;;;;;;;1.65;1.13;;;15.30;99.90;;;;;;5007262;28;20130;-85
2022/11/10 12:01:28;;;;;;;0.90;0.88;;;15.20;1.00;;;;;;5063670;28;20653;-85
2022/11/10 12:04:28;;;;;;;0.45;0.43;;;16.10;99.90;;;;;;5063242;28;20057;-86
2022/11/10 12:07:11;;;;;;;2.58;0.93;;;15.50;53.90;;;;;;5044643;28;20053;-86
2022/11/10 12:09:47;;;;;;;10.73;1.60;;;15.60;1.10;;;;;;5063332;28;20071;-85
2022/11/10 12:12:12;;;;;;;19.38;1.23;;;16.30;1.00;;;;;;5046762;28;20595;-86
2022/11/10 12:14:55;;;;;;;0.55;0.55;;;15.40;1.00;;;;;;5064399;28;20078;-86
2022/11/10 12:17:46;;;;;;;0.55;0.52;;;16.00;1.00;;;;;;5062291;28;20083;-86
2022/11/10 12:20:45;;;;;;;0.35;0.30;;;15.30;58.50;;;;;;5044475;28;20053;-86
2022/11/10 12:23:18;;;;;;;0.45;0.30;;;15.10;99.90;;;;;;5024103;28;20049;-85
2022/11/10 12:26:18;;;;;;;0.43;0.30;;;15.00;99.90;;;;;;5043405;28;20063;-85
2022/11/10 12:29:02;;;;;;;0.43;0.38;;;15.00;99.90;;;;;;5062327;28;20045;-85
2022/11/10 12:31:33;;;;;;;3.08;1.38;;;15.30;99.90;;;;;;5027244;28;20136;-86
2022/11/10 12:34:00;;;;;;;0.47;0.47;;;14.70;99.90;;;;;;5044559;28;20129;-85
2022/11/10 12:36:28;;;;;;;0.03;0.03;;;14.80;99.90;;;;;;5063224;28;20049;-86
2022/11/10 12:39:23;;;;;;;0.00;0.00;;;14.70;1.00;;;;;;5063086;28;20044;-85
2022/11/10 12:41:56;;;;;;;5.00;2.53;;;14.70;1.00;;;;;;5044345;28;20052;-86
2022/11/10 12:44:41;;;;;;;0.20;0.20;;;14.70;99.90;;;;;;5042691;28;20136;-85
2022/11/10 12:47:14;;;;;;;1.13;0.82;;;14.50;99.90;;;;;;5058807;28;20131;-85
2022/11/10 12:49:55;;;;;;;2.28;1.00;;;14.40;1.00;;;;;;5042205;28;20091;-86
2022/11/10 12:52:32;;;;;;;1.40;1.25;;;14.30;1.00;;;;;;5040653;28;20052;-85
2022/11/10 12:54:59;;;;;;;0.28;0.28;;;14.20;94.60;;;;;;5024978;28;20059;-85
2022/11/10 12:57:27;;;;;;;0.10;0.10;;;14.20;74.70;;;;;;5026269;28;20116;-86
2022/11/10 13:00:03;;;;;;;3.42;0.90;;;15.10;99.90;;;;;;5029177;28;20041;-86
2022/11/10 13:02:39;;;;;;;0.30;0.30;;;14.10;99.90;;;;;;5027486;28;20048;-86
2022/11/10 13:05:14;;;;;;;0.77;0.32;;;14.10;99.90;;;;;;5062334;28;20041;-85
2022/11/10 13:07:44;;;;;;;0.15;0.15;;;14.20;99.90;;;;;;5063659;28;20593;-86
2022/11/10 13:10:25;;;;;;;0.52;0.40;;;14.10;99.90;;;;;;5029566;28;20076;-86
2022/11/10 13:13:17;;;;;;;11.40;0.85;;;14.10;99.90;;;;;;5061159;28;20053;-85
2022/11/10 13:15:43;;;;;;;0.70;0.70;;;14.10;99.90;;;;;;5039824;28;20057;-85
2022/11/10 13:18:10;;;;;;;0.30;0.30;;;14.20;99.90;;;;;;5045801;28;20045;-85